createdAt,value
2022-12-19T00:04:12.971Z,7.63
2022-12-19T00:08:25.241Z,5.55
2022-12-19T00:12:37.501Z,8.20
2022-12-19T00:16:49.779Z,6.95
2022-12-19T00:21:05.178Z,6.47
2022-12-19T00:25:17.594Z,7.00
2022-12-19T00:29:31.465Z,7.40
2022-12-19T00:33:44.190Z,6.90
2022-12-19T00:37:57.788Z,8.25
2022-12-19T00:42:10.071Z,6.90
2022-12-19T00:46:23.387Z,5.15
2022-12-19T00:50:35.714Z,9.48
2022-12-19T00:54:48.435Z,6.72
2022-12-19T00:59:01.482Z,5.32
2022-12-19T01:03:13.938Z,7.85
2022-12-19T01:07:26.235Z,8.02
2022-12-19T01:11:57.747Z,7.93
2022-12-19T01:16:13.623Z,6.97
2022-12-19T01:20:29.487Z,6.53
2022-12-19T01:24:42.422Z,6.22
2022-12-19T01:28:54.727Z,7.28
2022-12-19T01:33:07.151Z,6.78
2022-12-19T01:37:20.473Z,7.43
2022-12-19T01:41:32.823Z,6.97
2022-12-19T01:45:48.663Z,7.35
2022-12-19T01:50:03.100Z,6.57
2022-12-19T01:54:21.871Z,6.07
2022-12-19T01:58:35.144Z,6.75
2022-12-19T02:02:54.985Z,7.43
2022-12-19T02:07:16.288Z,5.35
2022-12-19T02:11:38.192Z,8.00
2022-12-19T02:15:58.293Z,5.93
2022-12-19T02:20:46.183Z,7.15
2022-12-19T02:25:26.436Z,7.10
2022-12-19T02:30:02.948Z,6.78
2022-12-19T02:34:21.609Z,7.15
2022-12-19T02:38:48.998Z,7.82
2022-12-19T02:43:05.678Z,7.78
2022-12-19T02:47:19.944Z,7.53
2022-12-19T02:51:32.230Z,7.60
2022-12-19T02:56:05.584Z,7.03
2022-12-19T03:00:24.915Z,7.72
2022-12-19T03:04:53.987Z,7.78
2022-12-19T03:13:22.090Z,6.93
2022-12-19T03:17:38.813Z,6.13
2022-12-19T03:21:51.553Z,7.03
2022-12-19T03:26:08.405Z,7.63
2022-12-19T03:30:21.037Z,8.35
2022-12-19T03:34:45.789Z,8.68
2022-12-19T03:39:00.744Z,6.82
2022-12-19T03:43:16.744Z,8.70
2022-12-19T03:47:36.087Z,8.23
2022-12-19T03:52:02.024Z,8.80
2022-12-19T03:56:52.781Z,8.13
2022-12-19T04:01:07.515Z,9.48
2022-12-19T04:05:24.057Z,9.60
2022-12-19T04:09:38.466Z,8.05
2022-12-19T04:14:02.105Z,8.15
2022-12-19T04:18:21.917Z,8.68
2022-12-19T04:22:54.325Z,10.75
2022-12-19T04:27:10.367Z,5.40
2022-12-19T04:31:24.360Z,6.95
2022-12-19T04:35:37.443Z,8.75
2022-12-19T04:39:49.796Z,7.68
2022-12-19T04:44:02.225Z,8.95
2022-12-19T04:48:14.653Z,10.00
2022-12-19T04:52:27.016Z,7.63
2022-12-19T04:56:39.341Z,8.02
2022-12-19T05:00:51.664Z,9.15
2022-12-19T05:05:04.084Z,10.13
2022-12-19T05:09:16.752Z,9.13
2022-12-19T05:13:29.973Z,7.63
2022-12-19T05:17:42.272Z,9.15
2022-12-19T05:21:54.682Z,7.40
2022-12-19T05:26:07.999Z,7.72
2022-12-19T05:30:30.288Z,9.57
2022-12-19T05:34:42.593Z,7.90
2022-12-19T05:38:54.917Z,9.55
2022-12-19T05:43:07.391Z,7.72
2022-12-19T05:47:21.225Z,7.85
2022-12-19T05:51:33.525Z,6.80
2022-12-19T05:55:46.118Z,7.43
2022-12-19T05:59:58.455Z,8.88
2022-12-19T06:04:10.738Z,7.75
2022-12-19T06:08:23.389Z,8.48
2022-12-19T06:12:35.699Z,8.63
2022-12-19T06:16:48.070Z,8.18
2022-12-19T06:21:02.582Z,9.68
2022-12-19T06:25:15.022Z,7.43
2022-12-19T06:29:27.321Z,7.45
2022-12-19T06:33:39.623Z,7.90
2022-12-19T06:37:54.352Z,7.82
2022-12-19T06:42:24.964Z,8.77
2022-12-19T06:46:38.187Z,8.90
2022-12-19T06:50:50.470Z,8.50
2022-12-19T06:55:02.759Z,7.10
2022-12-19T06:59:17.012Z,6.90
2022-12-19T07:03:38.369Z,8.45
2022-12-19T07:07:50.991Z,8.68
2022-12-19T07:12:03.659Z,8.40
2022-12-19T07:16:16.115Z,10.43
2022-12-19T07:20:31.252Z,7.38
2022-12-19T07:24:43.588Z,8.02
2022-12-19T07:28:56.020Z,8.95
2022-12-19T07:33:11.102Z,8.93
2022-12-19T07:37:24.153Z,8.75
2022-12-19T07:41:39.840Z,10.20
2022-12-19T07:45:56.000Z,9.10
2022-12-19T07:50:18.374Z,11.00
2022-12-19T07:54:30.695Z,9.05
2022-12-19T07:58:53.146Z,8.60
2022-12-19T08:03:05.516Z,10.55
2022-12-19T08:07:20.264Z,10.63
2022-12-19T08:11:32.552Z,10.93
2022-12-19T08:15:44.908Z,10.13
2022-12-19T08:19:57.238Z,8.57
2022-12-19T08:24:09.567Z,8.85
2022-12-19T08:28:21.842Z,9.25
2022-12-19T08:32:34.139Z,10.23
2022-12-19T08:36:46.436Z,10.88
2022-12-19T08:40:58.732Z,10.25
2022-12-19T08:45:11.519Z,9.75
2022-12-19T08:49:23.812Z,10.60
2022-12-19T08:53:38.547Z,9.63
2022-12-19T08:57:50.824Z,11.38
2022-12-19T09:02:03.353Z,10.18
2022-12-19T09:06:19.485Z,9.55
2022-12-19T09:10:32.178Z,10.15
2022-12-19T09:14:47.471Z,8.68
2022-12-19T09:18:59.908Z,10.98
2022-12-19T09:23:12.212Z,11.38
2022-12-19T09:27:25.071Z,9.20
2022-12-19T09:31:37.433Z,8.55
2022-12-19T09:35:54.458Z,10.88
2022-12-19T09:44:45.732Z,8.55
2022-12-19T09:48:58.712Z,9.40
2022-12-19T09:53:22.123Z,10.85
2022-12-19T09:57:47.826Z,11.38
2022-12-19T10:02:24.035Z,9.35
2022-12-19T10:07:18.676Z,10.50
2022-12-19T10:12:46.511Z,9.38
2022-12-19T10:16:01.674Z,11.95
2022-12-19T10:20:39.870Z,10.70
2022-12-19T10:25:08.935Z,11.35
2022-12-19T10:30:02.244Z,9.70
2022-12-19T10:34:33.575Z,10.88
2022-12-19T10:39:07.409Z,8.48
2022-12-19T10:43:32.857Z,10.45
2022-12-19T10:47:50.609Z,11.05
2022-12-19T10:52:06.624Z,10.90
2022-12-19T10:56:28.257Z,10.63
2022-12-19T11:00:54.940Z,13.52
2022-12-19T11:05:27.156Z,11.18
2022-12-19T11:09:46.786Z,10.82
2022-12-19T11:18:52.742Z,11.02
2022-12-19T11:29:15.365Z,11.07
2022-12-19T11:30:38.642Z,10.82
2022-12-19T11:30:48.001Z,11.27
2022-12-19T11:33:19.247Z,10.82
2022-12-19T11:37:42.238Z,9.82
2022-12-19T11:42:09.245Z,10.43
2022-12-19T11:46:27.533Z,10.57
2022-12-19T11:51:02.462Z,10.32
2022-12-19T11:55:24.577Z,10.35
2022-12-19T11:59:40.893Z,10.45
2022-12-19T12:04:19.290Z,11.88
2022-12-19T12:11:36.603Z,11.23
2022-12-19T12:20:28.669Z,11.30
2022-12-19T12:31:00.904Z,12.27
2022-12-19T12:31:42.240Z,10.85
2022-12-19T12:31:49.889Z,9.60
2022-12-19T12:35:32.682Z,10.70
2022-12-19T12:38:39.794Z,10.82
2022-12-19T12:43:40.093Z,10.35
2022-12-19T12:52:43.753Z,10.35
2022-12-19T12:56:56.061Z,11.38
2022-12-19T13:01:12.094Z,13.07
2022-12-19T13:05:35.294Z,12.73
2022-12-19T13:09:55.356Z,10.88
2022-12-19T13:14:36.376Z,11.88
2022-12-19T13:19:19.580Z,8.50
2022-12-19T13:23:44.184Z,10.95
2022-12-19T13:28:03.728Z,11.75
2022-12-19T13:32:17.337Z,12.77
2022-12-19T13:40:02.200Z,12.25
2022-12-19T13:42:02.226Z,10.80
2022-12-19T13:46:36.583Z,12.48
2022-12-19T13:50:49.405Z,11.23
2022-12-19T13:55:02.006Z,11.50
2022-12-19T13:59:14.513Z,11.35
2022-12-19T14:03:43.312Z,12.48
2022-12-19T14:07:55.740Z,12.33
2022-12-19T14:14:00.593Z,12.40
2022-12-19T14:17:18.113Z,12.48
2022-12-19T14:22:08.638Z,13.38
2022-12-19T14:28:17.937Z,12.50
2022-12-19T14:30:41.509Z,11.93
2022-12-19T14:36:07.383Z,11.80
2022-12-19T14:39:33.512Z,12.05
2022-12-19T14:44:00.162Z,11.95
2022-12-19T14:54:18.060Z,11.65
2022-12-19T14:54:37.573Z,12.52
2022-12-19T14:57:50.853Z,13.88
2022-12-19T15:02:32.550Z,12.75
2022-12-19T15:07:07.122Z,11.95
2022-12-19T15:14:20.715Z,11.68
2022-12-19T15:16:39.780Z,12.95
2022-12-19T15:20:53.880Z,13.32
2022-12-19T15:25:13.493Z,11.10
2022-12-19T15:29:35.281Z,12.13
2022-12-19T15:34:23.285Z,12.32
2022-12-19T15:38:20.088Z,12.13
2022-12-19T15:42:32.778Z,10.60
2022-12-19T15:46:49.020Z,12.10
2022-12-19T15:51:01.857Z,12.90
2022-12-19T15:55:18.861Z,12.38
2022-12-19T15:59:42.051Z,10.98
2022-12-19T16:03:57.444Z,13.40
2022-12-19T16:08:23.910Z,12.80
2022-12-19T16:12:42.355Z,12.35
2022-12-19T16:16:56.303Z,13.90
2022-12-19T16:21:23.663Z,13.43
2022-12-19T16:25:42.746Z,11.23
2022-12-19T16:29:56.317Z,13.18
2022-12-19T16:34:17.305Z,10.85
2022-12-19T16:38:39.642Z,12.15
2022-12-19T16:42:59.811Z,12.35
2022-12-19T16:47:15.229Z,11.70
2022-12-19T16:51:28.781Z,10.98
2022-12-19T16:55:41.455Z,11.65
2022-12-19T16:59:53.787Z,11.23
2022-12-19T17:04:06.204Z,10.13
2022-12-19T17:08:19.493Z,11.70
2022-12-19T17:12:31.814Z,11.60
2022-12-19T17:16:45.373Z,12.02
2022-12-19T17:20:58.047Z,12.18
2022-12-19T17:25:20.935Z,11.20
2022-12-19T17:29:33.236Z,11.32
2022-12-19T17:33:46.480Z,12.45
2022-12-19T17:37:59.221Z,10.65
2022-12-19T17:42:19.254Z,9.70
2022-12-19T17:46:32.119Z,10.55
2022-12-19T17:50:44.513Z,12.02
2022-12-19T17:54:56.771Z,10.95
2022-12-19T17:59:09.062Z,11.82
2022-12-19T18:03:25.842Z,11.68
2022-12-19T18:07:38.244Z,11.55
2022-12-19T18:11:51.600Z,11.50
2022-12-19T18:16:04.995Z,12.00
2022-12-19T18:20:32.866Z,14.10
2022-12-19T18:24:45.241Z,12.95
2022-12-19T18:28:57.516Z,11.93
2022-12-19T18:33:17.953Z,11.52
2022-12-19T18:37:30.272Z,12.15
2022-12-19T18:41:42.551Z,11.07
2022-12-19T18:45:55.120Z,12.82
2022-12-19T18:50:29.241Z,13.15
2022-12-19T18:54:41.606Z,10.73
2022-12-19T18:58:53.925Z,11.93
2022-12-19T19:03:19.751Z,11.60
2022-12-19T19:07:32.106Z,12.00
2022-12-19T19:11:44.653Z,11.40
2022-12-19T19:16:02.622Z,12.68
2022-12-19T19:20:15.002Z,13.57
2022-12-19T19:24:27.376Z,12.23
2022-12-19T19:28:40.184Z,12.02
2022-12-19T19:33:13.766Z,10.90
2022-12-19T19:37:30.052Z,11.65
2022-12-19T19:41:42.440Z,12.05
2022-12-19T19:45:56.929Z,11.18
2022-12-19T19:50:19.773Z,13.30
2022-12-19T19:54:32.948Z,15.13
2022-12-19T19:58:45.394Z,12.65
2022-12-19T20:02:57.831Z,12.25
2022-12-19T20:07:12.075Z,10.70
2022-12-19T20:11:27.842Z,11.93
2022-12-19T20:15:46.003Z,11.00
2022-12-19T20:20:01.735Z,10.88
2022-12-19T20:24:14.208Z,11.23
2022-12-19T20:28:26.490Z,14.55
2022-12-19T20:32:38.782Z,13.98
2022-12-19T20:36:51.115Z,15.00
2022-12-19T20:41:04.252Z,13.27
2022-12-19T20:45:16.923Z,11.00
2022-12-19T20:49:29.225Z,12.93
2022-12-19T20:53:42.446Z,11.63
2022-12-19T20:57:54.734Z,9.57
2022-12-19T21:02:07.625Z,11.73
2022-12-19T21:06:21.941Z,10.85
2022-12-19T21:10:36.365Z,11.95
2022-12-19T21:14:48.681Z,12.23
2022-12-19T21:19:02.065Z,11.38
2022-12-19T21:23:14.911Z,10.80
2022-12-19T21:27:27.225Z,10.32
2022-12-19T21:31:39.742Z,9.32
2022-12-19T21:35:52.146Z,11.10
2022-12-19T21:40:05.240Z,10.88
2022-12-19T21:44:17.526Z,10.30
2022-12-19T21:48:29.835Z,11.05
2022-12-19T21:52:42.268Z,10.25
2022-12-19T21:56:54.659Z,9.93
2022-12-19T22:01:12.418Z,9.80
2022-12-19T22:05:24.789Z,8.32
2022-12-19T22:09:37.143Z,9.23
2022-12-19T22:13:50.449Z,10.13
2022-12-19T22:18:03.722Z,8.20
2022-12-19T22:22:16.025Z,9.13
2022-12-19T22:26:30.881Z,10.07
2022-12-19T22:30:43.269Z,10.18
2022-12-19T22:34:56.444Z,10.02
2022-12-19T22:39:14.618Z,10.00
2022-12-19T22:43:26.898Z,10.55
2022-12-19T22:47:43.011Z,10.10
2022-12-19T22:51:55.992Z,8.88
2022-12-19T22:56:12.549Z,8.43
2022-12-19T23:00:24.871Z,8.27
2022-12-19T23:04:37.211Z,9.30
2022-12-19T23:08:50.010Z,9.25
2022-12-19T23:13:02.319Z,9.93
2022-12-19T23:17:14.696Z,8.27
2022-12-19T23:21:27.352Z,8.10
2022-12-19T23:25:42.119Z,10.73
2022-12-19T23:29:54.437Z,9.13
2022-12-19T23:34:06.788Z,8.95
2022-12-19T23:38:19.228Z,9.55
2022-12-19T23:42:31.581Z,8.70
2022-12-19T23:46:45.851Z,9.07
2022-12-19T23:51:03.585Z,8.27
2022-12-19T23:55:15.943Z,9.02
2022-12-19T23:59:28.420Z,9.15
